createdAt,value
2016-08-01T00:00:21.421Z,58.40
2016-08-01T00:01:28.358Z,58.30
2016-08-01T00:02:21.403Z,58.20
2016-08-01T00:04:24.693Z,58.30
2016-08-01T00:05:21.368Z,58.40
2016-08-01T00:06:25.707Z,58.40
2016-08-01T00:07:28.283Z,58.20
2016-08-01T00:08:26.957Z,58.20
2016-08-01T00:09:27.076Z,58.20
2016-08-01T00:10:21.995Z,58.30
2016-08-01T00:11:15.439Z,is
2016-08-01T00:12:26.498Z,58.20
2016-08-01T00:13:25.490Z,58.20
2016-08-01T00:14:21.233Z,58.20
2016-08-01T00:15:19.719Z,58.40
2016-08-01T00:16:32.508Z,58.30
2016-08-01T00:17:25.915Z,58.30
2016-08-01T00:18:20.468Z,58.30
2016-08-01T00:19:26.655Z,58.20
2016-08-01T00:20:23.801Z,58.30
2016-08-01T00:21:28.526Z,58.30
2016-08-01T00:22:25.958Z,58.30
2016-08-01T00:23:21.566Z,is
2016-08-01T00:24:25.904Z,58.10
2016-08-01T00:25:28.065Z,58.30
2016-08-01T00:26:28.154Z,58.30
2016-08-01T00:27:28.050Z,58.20
2016-08-01T00:28:26.662Z,58.30
2016-08-01T00:29:27.235Z,58.30
2016-08-01T00:30:25.743Z,58.30
2016-08-01T00:31:23.560Z,58.20
2016-08-01T00:32:25.779Z,58.10
2016-08-01T00:34:31.249Z,58.10
2016-08-01T00:35:27.286Z,is
2016-08-01T00:36:23.156Z,58.10
2016-08-01T00:37:21.264Z,58.20
2016-08-01T00:38:21.658Z,58.20
2016-08-01T00:39:21.776Z,is
2016-08-01T00:40:26.259Z,58.00
2016-08-01T00:41:25.152Z,58.20
2016-08-01T00:42:26.821Z,58.10
2016-08-01T00:43:23.275Z,58.00
2016-08-01T00:44:12.048Z,58.10
2016-08-01T00:45:28.804Z,58.00
2016-08-01T00:46:23.849Z,58.00
2016-08-01T00:47:21.036Z,58.00
2016-08-01T00:48:23.613Z,58.10
2016-08-01T00:49:22.456Z,58.10
2016-08-01T00:50:27.068Z,58.10
2016-08-01T00:51:23.007Z,58.10
2016-08-01T00:52:27.324Z,58.00
2016-08-01T00:53:20.605Z,58.00
2016-08-01T00:54:28.052Z,58.00
2016-08-01T00:55:25.558Z,58.10
2016-08-01T00:56:19.816Z,58.00
2016-08-01T00:57:25.134Z,58.00
2016-08-01T00:58:29.733Z,58.00
2016-08-01T00:59:27.828Z,58.00
2016-08-01T01:00:21.287Z,58.00
2016-08-01T01:01:20.735Z,58.00
2016-08-01T01:02:27.161Z,57.90
2016-08-01T01:03:19.601Z,is
2016-08-01T01:04:27.644Z,57.90
2016-08-01T01:05:21.118Z,57.80
2016-08-01T01:06:27.175Z,57.90
2016-08-01T01:07:31.893Z,57.90
2016-08-01T01:08:19.056Z,58.00
2016-08-01T01:09:20.673Z,57.70
2016-08-01T01:10:21.373Z,57.50
2016-08-01T01:11:17.752Z,57.50
2016-08-01T01:12:25.861Z,57.80
2016-08-01T01:13:31.226Z,57.50
2016-08-01T01:14:20.932Z,57.60
2016-08-01T01:15:21.658Z,is
2016-08-01T01:16:23.593Z,57.50
2016-08-01T01:17:27.125Z,57.60
2016-08-01T01:18:18.734Z,57.60
2016-08-01T01:19:25.852Z,57.40
2016-08-01T01:20:23.218Z,57.90
2016-08-01T01:21:22.284Z,57.20
2016-08-01T01:22:20.287Z,57.80
2016-08-01T01:23:26.037Z,57.60
2016-08-01T01:24:27.340Z,57.60
2016-08-01T01:25:28.592Z,57.40
2016-08-01T01:26:28.218Z,57.30
2016-08-01T01:27:27.648Z,57.20
2016-08-01T01:28:23.286Z,57.30
2016-08-01T01:29:24.263Z,57.00
2016-08-01T01:30:23.419Z,56.70
2016-08-01T01:31:23.996Z,56.80
2016-08-01T01:32:21.705Z,is
2016-08-01T01:33:24.209Z,56.40
2016-08-01T01:34:26.694Z,is
2016-08-01T01:35:26.817Z,is
2016-08-01T01:36:26.613Z,56.20
2016-08-01T01:37:26.186Z,56.10
2016-08-01T01:38:25.135Z,56.20
2016-08-01T01:39:26.809Z,56.10
2016-08-01T01:40:24.031Z,56.30
2016-08-01T01:41:25.714Z,56.30
2016-08-01T01:42:20.204Z,56.20
2016-08-01T01:43:27.547Z,56.20
2016-08-01T01:44:23.958Z,56.10
2016-08-01T01:45:26.480Z,56.30
2016-08-01T01:46:25.864Z,56.30
2016-08-01T01:47:21.336Z,56.30
2016-08-01T01:48:27.292Z,is
2016-08-01T01:49:27.772Z,56.10
2016-08-01T01:50:18.935Z,56.30
2016-08-01T01:51:26.687Z,56.20
2016-08-01T01:52:28.944Z,56.00
2016-08-01T01:53:27.767Z,56.00
2016-08-01T01:54:20.827Z,56.10
2016-08-01T01:55:27.428Z,56.00
2016-08-01T01:56:21.272Z,56.00
2016-08-01T01:57:25.839Z,56.00
2016-08-01T01:58:20.793Z,56.00
2016-08-01T01:59:29.045Z,55.90
2016-08-01T02:00:28.538Z,55.80
2016-08-01T02:01:34.418Z,56.00
2016-08-01T02:02:22.258Z,55.90
2016-08-01T02:03:22.741Z,56.00
2016-08-01T02:04:23.447Z,56.00
2016-08-01T02:05:32.613Z,55.90
2016-08-01T02:06:33.371Z,55.90
2016-08-01T02:07:26.524Z,56.20
2016-08-01T02:08:27.083Z,56.20
2016-08-01T02:09:22.007Z,is
2016-08-01T02:10:31.153Z,is
2016-08-01T02:11:27.214Z,55.90
2016-08-01T02:12:11.751Z,55.90
2016-08-01T02:13:21.312Z,56.00
2016-08-01T02:14:23.773Z,55.90
2016-08-01T02:15:26.467Z,is
2016-08-01T02:16:22.388Z,55.80
2016-08-01T02:17:26.429Z,55.70
2016-08-01T02:18:23.115Z,is
2016-08-01T02:19:26.397Z,55.80
2016-08-01T02:20:22.249Z,55.70
2016-08-01T02:21:27.086Z,55.60
2016-08-01T02:22:20.674Z,is
2016-08-01T02:23:20.138Z,55.50
2016-08-01T02:24:26.296Z,55.30
2016-08-01T02:25:27.722Z,55.50
2016-08-01T02:26:28.277Z,55.30
2016-08-01T02:27:33.251Z,55.40
2016-08-01T02:28:27.269Z,55.40
2016-08-01T02:29:23.115Z,55.40
2016-08-01T02:30:21.397Z,is
2016-08-01T02:31:21.493Z,is
2016-08-01T02:32:28.484Z,55.20
2016-08-01T02:33:22.515Z,55.20
2016-08-01T02:34:28.246Z,55.20
2016-08-01T02:35:21.592Z,55.30
2016-08-01T02:36:28.734Z,55.30
2016-08-01T02:37:27.859Z,55.40
2016-08-01T02:38:27.506Z,55.50
2016-08-01T02:39:27.125Z,55.60
2016-08-01T02:40:21.214Z,55.50
2016-08-01T02:41:31.114Z,55.50
2016-08-01T02:42:26.826Z,55.60
2016-08-01T02:43:21.557Z,55.70
2016-08-01T02:44:23.237Z,55.80
2016-08-01T02:45:25.037Z,56.10
2016-08-01T02:46:23.700Z,55.70
2016-08-01T02:47:27.596Z,55.70
2016-08-01T02:48:27.386Z,55.80
2016-08-01T02:49:31.916Z,55.90
2016-08-01T02:50:29.200Z,56.10
2016-08-01T02:51:25.265Z,56.10
2016-08-01T02:52:21.430Z,56.10
2016-08-01T02:53:24.997Z,56.10
2016-08-01T02:54:27.938Z,56.00
2016-08-01T02:55:27.267Z,56.10
2016-08-01T02:56:27.379Z,55.80
2016-08-01T02:57:28.985Z,55.90
2016-08-01T02:58:28.327Z,55.80
2016-08-01T02:59:29.357Z,55.70
2016-08-01T03:00:23.709Z,55.80
2016-08-01T03:01:21.365Z,55.70
2016-08-01T03:02:25.350Z,55.80
2016-08-01T03:03:28.848Z,55.80
2016-08-01T03:04:20.930Z,55.60
2016-08-01T03:05:26.087Z,55.60
2016-08-01T03:06:31.295Z,55.70
2016-08-01T03:07:26.497Z,55.70
2016-08-01T03:08:23.361Z,55.70
2016-08-01T03:09:29.626Z,55.80
2016-08-01T03:10:28.338Z,55.70
2016-08-01T03:11:24.872Z,55.70
2016-08-01T03:12:26.597Z,is
2016-08-01T03:13:26.066Z,55.70
2016-08-01T03:14:27.454Z,55.70
2016-08-01T03:15:23.379Z,55.70
2016-08-01T03:16:22.743Z,55.90
2016-08-01T03:17:21.875Z,55.70
2016-08-01T03:18:30.794Z,55.60
2016-08-01T03:19:28.145Z,55.50
2016-08-01T03:20:20.163Z,is
2016-08-01T03:21:27.346Z,55.40
2016-08-01T03:22:27.915Z,55.50
2016-08-01T03:23:22.656Z,55.60
2016-08-01T03:24:26.623Z,55.60
2016-08-01T03:25:20.928Z,55.70
2016-08-01T03:26:31.994Z,55.70
2016-08-01T03:27:18.223Z,55.60
2016-08-01T03:28:25.467Z,55.70
2016-08-01T03:29:27.820Z,55.70
2016-08-01T03:30:25.975Z,55.50
2016-08-01T03:31:27.586Z,55.60
2016-08-01T03:32:28.252Z,55.40
2016-08-01T03:33:30.292Z,55.50
2016-08-01T03:34:21.536Z,55.50
2016-08-01T03:35:24.586Z,55.50
2016-08-01T03:36:27.331Z,55.60
2016-08-01T03:37:27.848Z,55.60
2016-08-01T03:38:21.840Z,is
2016-08-01T03:39:28.920Z,55.60
2016-08-01T03:40:22.014Z,55.80
2016-08-01T03:41:21.368Z,55.70
2016-08-01T03:42:27.586Z,55.70
2016-08-01T03:43:26.982Z,55.70
2016-08-01T03:44:22.833Z,is
2016-08-01T03:45:28.645Z,55.50
2016-08-01T03:46:20.980Z,55.60
2016-08-01T03:47:22.003Z,55.60
2016-08-01T03:48:27.121Z,55.50
2016-08-01T03:49:26.055Z,55.60
2016-08-01T03:50:22.475Z,55.60
2016-08-01T03:51:22.154Z,55.60
2016-08-01T03:52:27.231Z,55.70
2016-08-01T03:53:27.341Z,55.70
2016-08-01T03:54:23.078Z,55.80
2016-08-01T03:55:22.154Z,55.90
2016-08-01T03:56:27.237Z,56.00
2016-08-01T03:57:26.152Z,55.70
2016-08-01T03:58:24.815Z,55.70
2016-08-01T03:59:21.420Z,55.90
2016-08-01T04:00:26.411Z,55.80
2016-08-01T04:01:21.163Z,55.80
2016-08-01T04:02:16.400Z,is
2016-08-01T04:03:26.823Z,55.70
2016-08-01T04:04:28.137Z,55.50
2016-08-01T04:05:22.854Z,55.50
2016-08-01T04:06:27.793Z,55.50
2016-08-01T04:07:32.478Z,55.50
2016-08-01T04:08:35.294Z,55.40
2016-08-01T04:09:30.254Z,55.50
2016-08-01T04:10:30.529Z,55.30
2016-08-01T04:11:26.783Z,55.30
2016-08-01T04:12:26.403Z,55.30
2016-08-01T04:13:26.228Z,55.40
2016-08-01T04:14:23.752Z,55.40
2016-08-01T04:15:21.261Z,55.50
2016-08-01T04:16:22.690Z,55.30
2016-08-01T04:17:28.938Z,55.30
2016-08-01T04:18:25.944Z,55.40
2016-08-01T04:20:26.867Z,55.70
2016-08-01T04:21:25.589Z,55.50
2016-08-01T04:22:26.551Z,55.50
2016-08-01T04:23:30.845Z,55.30
2016-08-01T04:24:25.072Z,55.40
2016-08-01T04:25:49.946Z,55.50
2016-08-01T04:26:24.922Z,55.20
2016-08-01T04:27:28.904Z,55.20
2016-08-01T04:28:28.415Z,55.20
2016-08-01T04:29:21.571Z,55.20
2016-08-01T04:30:30.466Z,55.30
2016-08-01T04:31:26.413Z,55.40
2016-08-01T04:32:22.142Z,55.50
2016-08-01T04:33:26.151Z,is
2016-08-01T04:35:28.311Z,55.60
2016-08-01T04:36:22.505Z,55.50
2016-08-01T04:37:28.113Z,55.40
2016-08-01T04:38:23.542Z,55.40
2016-08-01T04:39:22.517Z,55.30
2016-08-01T04:40:28.588Z,55.40
2016-08-01T04:41:26.554Z,55.60
2016-08-01T04:42:21.435Z,55.40
2016-08-01T04:43:27.634Z,55.30
2016-08-01T04:44:18.948Z,55.20
2016-08-01T04:45:27.831Z,55.30
2016-08-01T04:46:21.921Z,55.40
2016-08-01T04:47:18.799Z,55.40
2016-08-01T04:48:29.224Z,55.40
2016-08-01T04:50:22.218Z,55.20
2016-08-01T04:51:31.787Z,55.20
2016-08-01T04:52:21.306Z,55.20
2016-08-01T04:53:23.927Z,55.20
2016-08-01T04:54:21.232Z,55.30
2016-08-01T04:55:26.162Z,55.40
2016-08-01T04:56:24.244Z,55.50
2016-08-01T04:57:27.461Z,55.20
2016-08-01T04:58:21.121Z,is
2016-08-01T04:59:19.989Z,55.40
2016-08-01T05:00:28.232Z,is
2016-08-01T05:01:23.055Z,55.50
2016-08-01T05:02:26.393Z,55.60
2016-08-01T05:03:21.920Z,55.50
2016-08-01T05:05:20.996Z,55.70
2016-08-01T05:06:22.130Z,55.70
2016-08-01T05:07:27.170Z,55.00
2016-08-01T05:08:27.994Z,55.00
2016-08-01T05:09:25.018Z,55.20
2016-08-01T05:10:28.261Z,55.30
2016-08-01T05:11:23.889Z,55.60
2016-08-01T05:12:28.020Z,55.40
2016-08-01T05:13:27.942Z,55.60
2016-08-01T05:14:26.314Z,55.90
2016-08-01T05:15:21.450Z,55.70
2016-08-01T05:16:18.665Z,55.50
2016-08-01T05:17:25.908Z,55.50
2016-08-01T05:18:21.555Z,55.60
2016-08-01T05:20:21.515Z,55.40
2016-08-01T05:21:33.051Z,55.50
2016-08-01T05:22:28.404Z,55.40
2016-08-01T05:23:27.579Z,55.40
2016-08-01T05:24:23.271Z,55.20
2016-08-01T05:25:28.722Z,55.60
2016-08-01T05:26:25.902Z,55.70
2016-08-01T05:27:22.483Z,55.50
2016-08-01T05:28:26.280Z,55.60
2016-08-01T05:29:28.181Z,55.30
2016-08-01T05:30:22.849Z,55.50
2016-08-01T05:31:30.027Z,55.50
2016-08-01T05:32:27.786Z,55.60
2016-08-01T05:33:25.392Z,55.60
2016-08-01T05:35:22.627Z,55.50
2016-08-01T05:36:22.325Z,55.40
2016-08-01T05:37:25.579Z,55.40
2016-08-01T05:38:29.056Z,55.40
2016-08-01T05:39:26.899Z,is
2016-08-01T05:40:23.745Z,55.60
2016-08-01T05:41:22.509Z,55.70
2016-08-01T05:42:31.785Z,55.60
2016-08-01T05:43:26.423Z,55.50
2016-08-01T05:44:27.178Z,55.60
2016-08-01T05:45:27.352Z,is
2016-08-01T05:46:21.885Z,55.70
2016-08-01T05:47:28.196Z,55.50
2016-08-01T05:48:28.195Z,55.60
2016-08-01T05:49:20.183Z,55.60
2016-08-01T05:50:26.885Z,55.70
2016-08-01T05:51:26.768Z,55.60
2016-08-01T05:52:28.002Z,55.70
2016-08-01T05:53:21.663Z,55.70
2016-08-01T05:54:28.280Z,55.30
2016-08-01T05:55:21.412Z,55.40
2016-08-01T05:56:28.164Z,55.40
2016-08-01T05:57:25.018Z,55.50
2016-08-01T05:58:27.981Z,55.40
2016-08-01T05:59:28.110Z,55.40
2016-08-01T06:00:21.293Z,55.30
2016-08-01T06:01:25.426Z,55.30
2016-08-01T06:02:26.768Z,is
2016-08-01T06:03:26.590Z,55.20
2016-08-01T06:05:22.758Z,55.20
2016-08-01T06:06:18.089Z,55.20
2016-08-01T06:07:24.164Z,55.20
2016-08-01T06:08:22.841Z,55.10
2016-08-01T06:09:23.544Z,55.30
2016-08-01T06:10:23.524Z,is
2016-08-01T06:11:20.903Z,is
2016-08-01T06:12:21.370Z,55.20
2016-08-01T06:13:17.891Z,is
2016-08-01T06:14:22.571Z,55.10
2016-08-01T06:15:24.417Z,55.20
2016-08-01T06:16:27.371Z,55.00
2016-08-01T06:17:27.536Z,55.50
2016-08-01T06:18:25.916Z,55.00
2016-08-01T06:19:23.545Z,54.90
2016-08-01T06:20:28.050Z,55.00
2016-08-01T06:21:28.449Z,55.00
2016-08-01T06:22:33.891Z,54.90
2016-08-01T06:23:34.673Z,54.80
2016-08-01T06:24:29.146Z,54.70
2016-08-01T06:25:29.049Z,54.70
2016-08-01T06:26:21.962Z,is
2016-08-01T06:27:27.943Z,54.70
2016-08-01T06:28:31.732Z,54.50
2016-08-01T06:29:28.399Z,54.60
2016-08-01T06:30:29.921Z,54.60
2016-08-01T06:31:30.656Z,54.60
2016-08-01T06:32:33.207Z,54.20
2016-08-01T06:33:31.618Z,54.40
2016-08-01T06:34:28.234Z,54.20
2016-08-01T06:35:26.073Z,54.20
2016-08-01T06:36:23.401Z,is
2016-08-01T06:37:31.232Z,53.90
2016-08-01T06:38:30.604Z,53.90
2016-08-01T06:39:36.218Z,53.90
2016-08-01T06:40:18.222Z,53.90
2016-08-01T06:41:28.446Z,53.70
2016-08-01T06:42:30.993Z,53.80
2016-08-01T06:43:29.074Z,54.00
2016-08-01T06:44:22.468Z,54.20
2016-08-01T06:45:30.772Z,54.20
2016-08-01T06:46:27.130Z,54.10
2016-08-01T06:47:26.360Z,54.30
2016-08-01T06:48:27.447Z,54.80
2016-08-01T06:49:26.125Z,54.50
2016-08-01T06:50:27.465Z,54.30
2016-08-01T06:51:22.312Z,is
2016-08-01T06:52:13.824Z,54.50
2016-08-01T06:53:26.334Z,is
2016-08-01T06:54:28.986Z,54.30
2016-08-01T06:55:27.877Z,54.50
2016-08-01T06:56:27.463Z,54.60
2016-08-01T06:57:25.674Z,54.60
2016-08-01T06:58:23.533Z,54.90
2016-08-01T06:59:26.318Z,55.00
2016-08-01T07:00:16.706Z,55.10
2016-08-01T07:01:35.895Z,55.00
2016-08-01T07:02:24.757Z,55.10
2016-08-01T07:03:25.691Z,is
2016-08-01T07:04:20.822Z,55.10
2016-08-01T07:05:23.360Z,55.10
2016-08-01T07:06:28.242Z,55.00
2016-08-01T07:07:26.849Z,55.10
2016-08-01T07:08:30.546Z,55.10
2016-08-01T07:09:20.359Z,55.10
2016-08-01T07:10:22.368Z,54.90
2016-08-01T07:11:28.071Z,55.00
2016-08-01T07:12:23.146Z,54.90
2016-08-01T07:13:28.459Z,54.90
2016-08-01T07:14:27.862Z,54.80
2016-08-01T07:15:23.127Z,54.70
2016-08-01T07:16:28.530Z,54.70
2016-08-01T07:17:13.341Z,54.70
2016-08-01T07:18:33.499Z,54.70
2016-08-01T07:19:22.511Z,55.20
2016-08-01T07:20:28.914Z,54.60
2016-08-01T07:21:27.517Z,54.50
2016-08-01T07:22:26.060Z,54.40
2016-08-01T07:23:19.819Z,54.50
2016-08-01T07:24:24.334Z,54.50
2016-08-01T07:25:32.085Z,54.40
2016-08-01T07:26:33.273Z,54.40
2016-08-01T07:27:29.019Z,54.40
2016-08-01T07:28:28.698Z,54.20
2016-08-01T07:29:14.175Z,54.20
2016-08-01T07:30:27.618Z,54.10
2016-08-01T07:31:21.275Z,54.20
2016-08-01T07:32:27.123Z,54.10
2016-08-01T07:33:27.472Z,54.10
2016-08-01T07:34:29.089Z,54.00
2016-08-01T07:35:25.955Z,54.10
2016-08-01T07:36:28.534Z,54.10
2016-08-01T07:37:30.546Z,54.00
2016-08-01T07:38:29.337Z,54.10
2016-08-01T07:39:28.275Z,54.00
2016-08-01T07:40:31.814Z,53.90
2016-08-01T07:41:29.726Z,54.00
2016-08-01T07:42:27.748Z,53.90
2016-08-01T07:43:25.934Z,53.80
2016-08-01T07:44:28.125Z,53.80
2016-08-01T07:45:26.820Z,53.80
2016-08-01T07:46:22.279Z,53.70
2016-08-01T07:47:28.152Z,53.80
2016-08-01T07:48:28.255Z,53.90
2016-08-01T07:49:28.558Z,53.60
2016-08-01T07:50:31.595Z,53.70
2016-08-01T07:51:32.357Z,53.70
2016-08-01T07:52:28.541Z,53.60
2016-08-01T07:53:29.441Z,53.60
2016-08-01T07:54:22.800Z,is
2016-08-01T07:55:20.970Z,53.50
2016-08-01T07:56:28.336Z,53.50
2016-08-01T07:57:23.581Z,53.50
2016-08-01T07:58:27.757Z,53.50
2016-08-01T07:59:23.040Z,53.50
2016-08-01T08:00:30.867Z,53.40
2016-08-01T08:01:30.867Z,53.40
2016-08-01T08:02:26.563Z,53.30
2016-08-01T08:03:33.080Z,53.60
2016-08-01T08:04:20.562Z,53.40
2016-08-01T08:05:21.516Z,53.40
2016-08-01T08:06:26.580Z,53.40
2016-08-01T08:07:27.756Z,53.20
2016-08-01T08:08:31.481Z,53.00
2016-08-01T08:09:28.191Z,53.10
2016-08-01T08:10:18.958Z,53.00
2016-08-01T08:11:25.590Z,53.00
2016-08-01T08:12:23.110Z,53.00
2016-08-01T08:13:29.196Z,53.10
2016-08-01T08:14:20.562Z,53.00
2016-08-01T08:15:21.975Z,53.00
2016-08-01T08:16:21.884Z,53.00
2016-08-01T08:17:20.462Z,53.00
2016-08-01T08:18:27.753Z,53.10
2016-08-01T08:19:30.898Z,53.00
2016-08-01T08:20:28.471Z,53.00
2016-08-01T08:21:12.612Z,53.00
2016-08-01T08:22:25.194Z,53.10
2016-08-01T08:23:20.081Z,53.30
2016-08-01T08:24:27.619Z,53.00
2016-08-01T08:25:28.062Z,53.10
2016-08-01T08:26:21.885Z,53.10
2016-08-01T08:27:27.072Z,53.10
2016-08-01T08:28:27.977Z,53.00
2016-08-01T08:29:38.421Z,53.10
2016-08-01T08:30:28.913Z,53.20
2016-08-01T08:31:30.653Z,53.20
2016-08-01T08:32:30.624Z,53.20
2016-08-01T08:33:26.337Z,53.10
2016-08-01T08:34:17.030Z,53.10
2016-08-01T08:35:27.292Z,53.10
2016-08-01T08:36:11.340Z,is
2016-08-01T08:37:31.104Z,53.10
2016-08-01T08:38:31.692Z,53.10
2016-08-01T08:39:34.397Z,53.20
2016-08-01T08:40:31.352Z,53.10
2016-08-01T08:41:22.566Z,53.20
2016-08-01T08:42:27.562Z,53.10
2016-08-01T08:43:28.389Z,53.20
2016-08-01T08:44:23.776Z,53.10
2016-08-01T08:45:29.540Z,53.10
2016-08-01T08:46:21.936Z,53.10
2016-08-01T08:47:17.783Z,53.40
2016-08-01T08:48:16.754Z,is
2016-08-01T08:49:25.027Z,53.20
2016-08-01T08:50:28.590Z,53.10
2016-08-01T08:51:26.956Z,53.20
2016-08-01T08:52:26.113Z,53.20
2016-08-01T08:53:30.546Z,53.10
2016-08-01T08:54:29.716Z,53.30
2016-08-01T08:55:28.098Z,53.00
2016-08-01T08:56:28.404Z,53.00
2016-08-01T08:57:24.389Z,52.70
2016-08-01T08:58:22.592Z,52.90
2016-08-01T08:59:19.439Z,is
2016-08-01T09:00:20.293Z,52.80
2016-08-01T09:01:20.318Z,52.90
2016-08-01T09:02:24.614Z,53.00
2016-08-01T09:03:28.308Z,53.00
2016-08-01T09:04:32.212Z,53.10
2016-08-01T09:06:28.628Z,53.00
2016-08-01T09:07:30.662Z,53.10
2016-08-01T09:08:19.015Z,53.00
2016-08-01T09:09:30.090Z,53.00
2016-08-01T09:10:26.555Z,53.10
2016-08-01T09:11:18.305Z,53.00
2016-08-01T09:12:11.553Z,is
2016-08-01T09:13:21.796Z,53.00
2016-08-01T09:14:27.292Z,52.90
2016-08-01T09:15:29.196Z,52.90
2016-08-01T09:16:28.410Z,52.90
2016-08-01T09:17:27.641Z,53.20
2016-08-01T09:18:29.264Z,52.80
2016-08-01T09:19:26.636Z,52.80
2016-08-01T09:21:27.019Z,52.80
2016-08-01T09:22:28.190Z,52.70
2016-08-01T09:23:26.088Z,52.60
2016-08-01T09:24:22.899Z,52.70
2016-08-01T09:25:35.149Z,52.60
2016-08-01T09:26:32.253Z,52.70
2016-08-01T09:27:28.241Z,52.70
2016-08-01T09:28:28.201Z,52.70
2016-08-01T09:29:21.866Z,52.70
2016-08-01T09:30:22.703Z,52.60
2016-08-01T09:31:28.553Z,52.50
2016-08-01T09:32:21.279Z,is
2016-08-01T09:33:21.616Z,52.50
2016-08-01T09:34:18.167Z,52.40
2016-08-01T09:35:12.488Z,52.40
2016-08-01T09:36:22.905Z,52.40
2016-08-01T09:37:12.104Z,52.30
2016-08-01T09:38:31.013Z,52.30
2016-08-01T09:39:18.656Z,52.40
2016-08-01T09:40:28.685Z,52.30
2016-08-01T09:41:22.626Z,52.20
2016-08-01T09:42:29.139Z,52.20
2016-08-01T09:43:27.483Z,52.20
2016-08-01T09:44:23.246Z,52.30
2016-08-01T09:45:22.339Z,is
2016-08-01T09:46:23.089Z,52.20
2016-08-01T09:47:26.844Z,52.30
2016-08-01T09:48:28.899Z,52.20
2016-08-01T09:49:20.396Z,52.10
2016-08-01T09:50:17.120Z,52.10
2016-08-01T09:51:32.606Z,52.10
2016-08-01T09:52:27.883Z,52.20
2016-08-01T09:53:33.491Z,52.30
2016-08-01T09:54:25.740Z,52.10
2016-08-01T09:55:21.913Z,52.10
2016-08-01T09:56:17.800Z,is
2016-08-01T09:57:15.054Z,52.10
2016-08-01T09:58:19.950Z,52.00
2016-08-01T09:59:32.848Z,52.00
2016-08-01T10:00:15.099Z,52.00
2016-08-01T10:01:22.991Z,51.90
2016-08-01T10:02:22.655Z,52.00
2016-08-01T10:03:32.534Z,51.90
2016-08-01T10:04:26.247Z,51.90
2016-08-01T10:05:11.199Z,is
2016-08-01T10:06:11.939Z,is
2016-08-01T10:07:26.938Z,is
2016-08-01T10:08:26.911Z,51.80
2016-08-01T10:09:27.759Z,51.90
2016-08-01T10:10:28.298Z,51.80
2016-08-01T10:11:28.189Z,51.70
2016-08-01T10:12:22.609Z,51.80
2016-08-01T10:13:19.547Z,51.60
2016-08-01T10:14:23.076Z,51.80
2016-08-01T10:15:21.172Z,51.70
2016-08-01T10:16:28.072Z,51.70
2016-08-01T10:17:26.207Z,51.70
2016-08-01T10:18:27.194Z,51.80
2016-08-01T10:19:22.275Z,51.70
2016-08-01T10:21:27.353Z,51.60
2016-08-01T10:22:28.637Z,51.60
2016-08-01T10:23:25.949Z,51.70
2016-08-01T10:24:28.455Z,51.70
2016-08-01T10:25:27.386Z,51.60
2016-08-01T10:26:30.741Z,51.70
2016-08-01T10:27:21.634Z,51.80
2016-08-01T10:28:26.481Z,51.70
2016-08-01T10:29:13.351Z,51.70
2016-08-01T10:30:14.279Z,51.70
2016-08-01T10:31:29.000Z,51.70
2016-08-01T10:32:14.796Z,51.60
2016-08-01T10:33:14.564Z,51.70
2016-08-01T10:34:28.224Z,51.70
2016-08-01T10:35:22.627Z,51.70
2016-08-01T10:36:36.447Z,51.70
2016-08-01T10:37:25.216Z,is
2016-08-01T10:38:26.859Z,51.80
2016-08-01T10:39:27.714Z,51.70
2016-08-01T10:40:15.287Z,51.70
2016-08-01T10:41:14.960Z,51.70
2016-08-01T10:42:17.755Z,51.80
2016-08-01T10:43:13.955Z,is
2016-08-01T10:44:15.455Z,51.80
2016-08-01T10:45:15.796Z,51.80
2016-08-01T10:46:18.224Z,51.80
2016-08-01T10:47:15.079Z,51.80
2016-08-01T10:48:17.738Z,51.80
2016-08-01T10:49:15.485Z,51.90
2016-08-01T10:50:15.554Z,51.90
2016-08-01T10:51:16.107Z,51.80
2016-08-01T10:52:17.686Z,51.80
2016-08-01T10:53:17.268Z,51.80
2016-08-01T10:54:12.937Z,is
2016-08-01T10:55:19.546Z,51.80
2016-08-01T10:56:14.663Z,51.70
2016-08-01T10:57:16.079Z,51.70
2016-08-01T10:58:15.983Z,51.80
2016-08-01T10:59:16.607Z,51.70
2016-08-01T11:00:16.270Z,51.70
2016-08-01T11:01:16.352Z,51.80
2016-08-01T11:02:15.643Z,51.70
2016-08-01T11:03:16.366Z,51.60
2016-08-01T11:04:15.080Z,51.70
2016-08-01T11:05:14.789Z,51.70
2016-08-01T11:06:15.077Z,51.70
2016-08-01T11:07:15.273Z,51.60
2016-08-01T11:08:17.297Z,51.70
2016-08-01T11:09:16.805Z,51.60
2016-08-01T11:10:14.350Z,51.50
2016-08-01T11:11:16.534Z,51.60
2016-08-01T11:12:16.178Z,51.60
2016-08-01T11:13:14.134Z,51.70
2016-08-01T11:14:14.722Z,51.60
2016-08-01T11:15:14.889Z,51.60
2016-08-01T11:16:16.032Z,51.60
2016-08-01T11:17:15.243Z,51.60
2016-08-01T11:18:16.289Z,51.50
2016-08-01T11:19:14.661Z,51.50
2016-08-01T11:20:15.502Z,51.60
2016-08-01T11:21:15.427Z,51.70
2016-08-01T11:22:15.121Z,51.60
2016-08-01T11:23:17.035Z,51.50
2016-08-01T11:24:17.699Z,51.60
2016-08-01T11:25:15.095Z,51.60
2016-08-01T11:26:12.224Z,is
2016-08-01T11:27:15.054Z,51.60
2016-08-01T11:28:16.188Z,51.70
2016-08-01T11:29:14.739Z,51.50
2016-08-01T11:30:15.139Z,51.60
2016-08-01T11:31:14.043Z,51.50
2016-08-01T11:32:14.699Z,51.70
2016-08-01T11:33:16.083Z,51.50
2016-08-01T11:34:14.976Z,51.60
2016-08-01T11:35:15.389Z,51.60
2016-08-01T11:36:15.165Z,51.60
2016-08-01T11:37:15.819Z,51.60
2016-08-01T11:38:17.031Z,51.70
2016-08-01T11:39:15.058Z,51.60
2016-08-01T11:40:15.128Z,51.70
2016-08-01T11:41:15.215Z,51.60
2016-08-01T11:42:16.552Z,51.60
2016-08-01T11:43:16.179Z,51.60
2016-08-01T11:44:16.475Z,51.70
2016-08-01T11:45:15.850Z,51.60
2016-08-01T11:46:15.927Z,51.60
2016-08-01T11:47:15.902Z,51.60
2016-08-01T11:48:16.143Z,51.70
2016-08-01T11:49:15.065Z,51.60
2016-08-01T11:50:15.776Z,51.60
2016-08-01T11:51:16.213Z,51.70
2016-08-01T11:52:15.813Z,51.60
2016-08-01T11:53:15.893Z,51.50
2016-08-01T11:54:17.243Z,51.70
2016-08-01T11:55:16.585Z,51.60
2016-08-01T11:56:15.329Z,51.50
2016-08-01T11:57:14.829Z,51.60
2016-08-01T11:58:16.266Z,51.70
2016-08-01T11:59:16.664Z,51.70
2016-08-01T12:00:15.065Z,51.60
2016-08-01T12:01:16.683Z,51.70
2016-08-01T12:02:16.596Z,51.70
2016-08-01T12:03:17.242Z,51.70
2016-08-01T12:04:16.494Z,51.70
2016-08-01T12:05:15.016Z,51.70
2016-08-01T12:06:16.296Z,51.70
2016-08-01T12:07:16.562Z,51.80
2016-08-01T12:08:16.594Z,51.80
2016-08-01T12:09:16.472Z,51.90
2016-08-01T12:10:15.384Z,51.70
2016-08-01T12:11:15.976Z,51.70
2016-08-01T12:12:15.572Z,51.70
2016-08-01T12:13:16.117Z,51.80
2016-08-01T12:14:15.380Z,51.80
2016-08-01T12:15:15.265Z,51.70
2016-08-01T12:16:15.011Z,51.70
2016-08-01T12:17:13.084Z,is
2016-08-01T12:18:15.132Z,51.70
2016-08-01T12:19:16.067Z,51.70
2016-08-01T12:20:15.391Z,51.70
2016-08-01T12:21:14.559Z,51.70
2016-08-01T12:22:15.012Z,51.60
2016-08-01T12:23:17.841Z,51.70
2016-08-01T12:24:15.834Z,51.70
2016-08-01T12:25:14.801Z,51.70
2016-08-01T12:26:13.051Z,is
2016-08-01T12:27:15.326Z,51.60
2016-08-01T12:28:16.066Z,51.60
2016-08-01T12:29:14.087Z,is
2016-08-01T12:30:16.623Z,51.70
2016-08-01T12:31:14.829Z,51.60
2016-08-01T12:32:16.125Z,51.70
2016-08-01T12:33:14.608Z,51.70
2016-08-01T12:34:14.920Z,51.70
2016-08-01T12:35:12.668Z,is
2016-08-01T12:36:15.654Z,51.70
2016-08-01T12:37:13.776Z,is
2016-08-01T12:38:16.853Z,51.70
2016-08-01T12:39:12.806Z,is
2016-08-01T12:40:15.636Z,51.60
2016-08-01T12:41:14.898Z,51.60
2016-08-01T12:42:16.128Z,51.60
2016-08-01T12:43:16.965Z,51.60
2016-08-01T12:44:17.931Z,51.70
2016-08-01T12:45:15.467Z,51.60
2016-08-01T12:46:14.856Z,51.50
2016-08-01T12:47:13.441Z,is
2016-08-01T12:48:15.103Z,51.60
2016-08-01T12:49:15.511Z,51.70
2016-08-01T12:50:14.785Z,51.60
2016-08-01T12:52:15.309Z,51.50
2016-08-01T12:53:16.774Z,51.50
2016-08-01T12:54:15.029Z,51.50
2016-08-01T12:55:16.997Z,51.50
2016-08-01T12:56:17.509Z,51.40
2016-08-01T12:57:15.302Z,51.40
2016-08-01T12:58:15.640Z,51.50
2016-08-01T12:59:17.193Z,51.50
2016-08-01T13:00:16.245Z,51.60
2016-08-01T13:01:15.682Z,51.60
2016-08-01T13:02:14.789Z,51.40
2016-08-01T13:03:15.990Z,51.50
2016-08-01T13:04:18.071Z,51.40
2016-08-01T13:05:15.425Z,51.60
2016-08-01T13:07:15.019Z,51.50
2016-08-01T13:08:17.809Z,51.40
2016-08-01T13:09:25.109Z,51.70
2016-08-01T13:10:16.934Z,51.50
2016-08-01T13:11:17.296Z,51.50
2016-08-01T13:12:15.583Z,51.50